sensor_id;sensor_type;location;lat;lon;timestamp;temperature;humidity
69731;SHT31;56996;48.138;11.538;2024-01-07T00:01:27;3.25;80.31
69731;SHT31;56996;48.138;11.538;2024-01-07T00:03:54;3.23;80.35
69731;SHT31;56996;48.138;11.538;2024-01-07T00:06:21;3.20;80.52
69731;SHT31;56996;48.138;11.538;2024-01-07T00:08:48;3.27;80.50
69731;SHT31;56996;48.138;11.538;2024-01-07T00:11:14;3.21;80.39
69731;SHT31;56996;48.138;11.538;2024-01-07T00:13:41;3.17;80.56
69731;SHT31;56996;48.138;11.538;2024-01-07T00:16:08;3.12;80.62
69731;SHT31;56996;48.138;11.538;2024-01-07T00:18:35;3.10;80.75
69731;SHT31;56996;48.138;11.538;2024-01-07T00:21:02;3.10;80.77
69731;SHT31;56996;48.138;11.538;2024-01-07T00:23:29;3.08;80.82
69731;SHT31;56996;48.138;11.538;2024-01-07T00:25:55;3.08;80.88
69731;SHT31;56996;48.138;11.538;2024-01-07T00:28:22;3.14;80.89
69731;SHT31;56996;48.138;11.538;2024-01-07T00:30:49;3.14;80.73
69731;SHT31;56996;48.138;11.538;2024-01-07T00:33:15;3.19;80.76
69731;SHT31;56996;48.138;11.538;2024-01-07T00:35:42;3.20;80.64
69731;SHT31;56996;48.138;11.538;2024-01-07T00:38:09;3.17;80.69
69731;SHT31;56996;48.138;11.538;2024-01-07T00:40:36;3.15;80.78
69731;SHT31;56996;48.138;11.538;2024-01-07T00:43:04;3.16;80.80
69731;SHT31;56996;48.138;11.538;2024-01-07T00:45:31;3.22;80.67
69731;SHT31;56996;48.138;11.538;2024-01-07T00:47:58;3.23;80.46
69731;SHT31;56996;48.138;11.538;2024-01-07T00:50:24;3.14;80.64
69731;SHT31;56996;48.138;11.538;2024-01-07T00:52:51;3.06;80.87
69731;SHT31;56996;48.138;11.538;2024-01-07T00:55:18;3.04;80.93
69731;SHT31;56996;48.138;11.538;2024-01-07T00:57:44;3.08;80.90
69731;SHT31;56996;48.138;11.538;2024-01-07T01:00:11;3.07;80.81
69731;SHT31;56996;48.138;11.538;2024-01-07T01:02:39;3.02;80.91
69731;SHT31;56996;48.138;11.538;2024-01-07T01:05:06;3.02;81.01
69731;SHT31;56996;48.138;11.538;2024-01-07T01:07:33;3.00;80.97
69731;SHT31;56996;48.138;11.538;2024-01-07T01:10:00;2.96;81.07
69731;SHT31;56996;48.138;11.538;2024-01-07T01:12:27;2.98;81.11
69731;SHT31;56996;48.138;11.538;2024-01-07T01:14:54;3.00;80.96
69731;SHT31;56996;48.138;11.538;2024-01-07T01:17:21;2.96;81.08
69731;SHT31;56996;48.138;11.538;2024-01-07T01:19:47;2.96;81.25
69731;SHT31;56996;48.138;11.538;2024-01-07T01:22:15;2.99;81.24
69731;SHT31;56996;48.138;11.538;2024-01-07T01:24:42;2.99;81.20
69731;SHT31;56996;48.138;11.538;2024-01-07T01:27:12;2.99;81.27
69731;SHT31;56996;48.138;11.538;2024-01-07T01:29:40;3.01;81.15
69731;SHT31;56996;48.138;11.538;2024-01-07T01:32:07;3.02;81.16
69731;SHT31;56996;48.138;11.538;2024-01-07T01:34:34;2.99;81.14
69731;SHT31;56996;48.138;11.538;2024-01-07T01:37:00;2.94;81.25
69731;SHT31;56996;48.138;11.538;2024-01-07T01:39:28;2.97;81.25
69731;SHT31;56996;48.138;11.538;2024-01-07T01:41:55;2.98;81.22
69731;SHT31;56996;48.138;11.538;2024-01-07T01:44:22;2.95;81.28
69731;SHT31;56996;48.138;11.538;2024-01-07T01:46:49;2.95;81.32
69731;SHT31;56996;48.138;11.538;2024-01-07T01:49:16;3.02;81.23
69731;SHT31;56996;48.138;11.538;2024-01-07T01:51:43;3.03;81.08
69731;SHT31;56996;48.138;11.538;2024-01-07T01:54:12;3.02;81.09
69731;SHT31;56996;48.138;11.538;2024-01-07T01:56:39;3.02;81.08
69731;SHT31;56996;48.138;11.538;2024-01-07T01:59:06;3.04;81.10
69731;SHT31;56996;48.138;11.538;2024-01-07T02:01:33;3.06;81.04
69731;SHT31;56996;48.138;11.538;2024-01-07T02:04:00;3.02;81.04
69731;SHT31;56996;48.138;11.538;2024-01-07T02:06:27;2.98;81.15
69731;SHT31;56996;48.138;11.538;2024-01-07T02:08:54;2.95;81.23
69731;SHT31;56996;48.138;11.538;2024-01-07T02:11:22;2.95;81.27
69731;SHT31;56996;48.138;11.538;2024-01-07T02:13:49;2.99;81.15
69731;SHT31;56996;48.138;11.538;2024-01-07T02:16:16;2.95;81.17
69731;SHT31;56996;48.138;11.538;2024-01-07T02:18:43;2.96;81.27
69731;SHT31;56996;48.138;11.538;2024-01-07T02:21:13;3.04;81.15
69731;SHT31;56996;48.138;11.538;2024-01-07T02:23:40;3.07;80.98
69731;SHT31;56996;48.138;11.538;2024-01-07T02:26:07;3.07;80.94
69731;SHT31;56996;48.138;11.538;2024-01-07T02:28:34;3.02;81.05
69731;SHT31;56996;48.138;11.538;2024-01-07T02:31:02;3.03;81.19
69731;SHT31;56996;48.138;11.538;2024-01-07T02:33:30;3.09;81.02
69731;SHT31;56996;48.138;11.538;2024-01-07T02:35:57;3.04;81.00
69731;SHT31;56996;48.138;11.538;2024-01-07T02:38:24;2.97;81.15
69731;SHT31;56996;48.138;11.538;2024-01-07T02:40:51;3.01;81.28
69731;SHT31;56996;48.138;11.538;2024-01-07T02:43:17;3.06;81.12
69731;SHT31;56996;48.138;11.538;2024-01-07T02:45:44;3.05;81.04
69731;SHT31;56996;48.138;11.538;2024-01-07T02:48:11;3.02;81.11
69731;SHT31;56996;48.138;11.538;2024-01-07T02:50:38;3.00;81.16
69731;SHT31;56996;48.138;11.538;2024-01-07T02:53:05;2.97;81.23
69731;SHT31;56996;48.138;11.538;2024-01-07T02:55:32;2.93;81.26
69731;SHT31;56996;48.138;11.538;2024-01-07T02:57:58;2.92;81.40
69731;SHT31;56996;48.138;11.538;2024-01-07T03:00:25;2.96;81.41
69731;SHT31;56996;48.138;11.538;2024-01-07T03:02:52;3.00;81.26
69731;SHT31;56996;48.138;11.538;2024-01-07T03:05:19;2.97;81.19
69731;SHT31;56996;48.138;11.538;2024-01-07T03:07:46;2.89;81.36
69731;SHT31;56996;48.138;11.538;2024-01-07T03:10:13;2.86;81.53
69731;SHT31;56996;48.138;11.538;2024-01-07T03:12:40;2.82;81.67
69731;SHT31;56996;48.138;11.538;2024-01-07T03:15:07;2.84;81.71
69731;SHT31;56996;48.138;11.538;2024-01-07T03:17:35;2.86;81.57
69731;SHT31;56996;48.138;11.538;2024-01-07T03:20:02;2.87;81.50
69731;SHT31;56996;48.138;11.538;2024-01-07T03:22:29;2.91;81.41
69731;SHT31;56996;48.138;11.538;2024-01-07T03:24:56;2.91;81.43
69731;SHT31;56996;48.138;11.538;2024-01-07T03:27:23;2.89;81.51
69731;SHT31;56996;48.138;11.538;2024-01-07T03:29:50;2.86;81.58
69731;SHT31;56996;48.138;11.538;2024-01-07T03:32:16;2.87;81.61
69731;SHT31;56996;48.138;11.538;2024-01-07T03:34:44;2.87;81.57
69731;SHT31;56996;48.138;11.538;2024-01-07T03:37:11;2.87;81.55
69731;SHT31;56996;48.138;11.538;2024-01-07T03:39:37;2.90;81.60
69731;SHT31;56996;48.138;11.538;2024-01-07T03:42:04;2.98;81.48
69731;SHT31;56996;48.138;11.538;2024-01-07T03:44:38;2.98;81.29
69731;SHT31;56996;48.138;11.538;2024-01-07T03:47:05;2.91;81.39
69731;SHT31;56996;48.138;11.538;2024-01-07T03:49:32;2.89;81.53
69731;SHT31;56996;48.138;11.538;2024-01-07T03:51:59;2.90;81.57
69731;SHT31;56996;48.138;11.538;2024-01-07T03:54:26;2.93;81.51
69731;SHT31;56996;48.138;11.538;2024-01-07T03:56:52;2.87;81.60
69731;SHT31;56996;48.138;11.538;2024-01-07T03:59:19;2.85;81.69
69731;SHT31;56996;48.138;11.538;2024-01-07T04:01:48;2.85;81.79
69731;SHT31;56996;48.138;11.538;2024-01-07T04:04:15;2.84;81.80
69731;SHT31;56996;48.138;11.538;2024-01-07T04:06:42;2.84;81.81
69731;SHT31;56996;48.138;11.538;2024-01-07T04:09:09;2.82;81.85
69731;SHT31;56996;48.138;11.538;2024-01-07T04:11:40;2.80;81.92
69731;SHT31;56996;48.138;11.538;2024-01-07T04:14:08;2.78;82.02
69731;SHT31;56996;48.138;11.538;2024-01-07T04:16:35;2.76;82.09
69731;SHT31;56996;48.138;11.538;2024-01-07T04:19:02;2.74;82.09
69731;SHT31;56996;48.138;11.538;2024-01-07T04:21:29;2.74;82.10
69731;SHT31;56996;48.138;11.538;2024-01-07T04:23:56;2.73;82.11
69731;SHT31;56996;48.138;11.538;2024-01-07T04:26:23;2.73;82.11
69731;SHT31;56996;48.138;11.538;2024-01-07T04:28:50;2.74;82.10
69731;SHT31;56996;48.138;11.538;2024-01-07T04:31:18;2.78;82.05
69731;SHT31;56996;48.138;11.538;2024-01-07T04:33:45;2.79;81.97
69731;SHT31;56996;48.138;11.538;2024-01-07T04:36:11;2.77;82.01
69731;SHT31;56996;48.138;11.538;2024-01-07T04:38:38;2.77;82.01
69731;SHT31;56996;48.138;11.538;2024-01-07T04:41:05;2.77;82.00
69731;SHT31;56996;48.138;11.538;2024-01-07T04:43:34;2.72;82.09
69731;SHT31;56996;48.138;11.538;2024-01-07T04:46:03;2.73;82.18
69731;SHT31;56996;48.138;11.538;2024-01-07T04:48:30;2.77;82.10
69731;SHT31;56996;48.138;11.538;2024-01-07T04:50:57;2.79;82.05
69731;SHT31;56996;48.138;11.538;2024-01-07T04:53:23;2.79;82.07
69731;SHT31;56996;48.138;11.538;2024-01-07T04:55:50;2.85;81.98
69731;SHT31;56996;48.138;11.538;2024-01-07T04:58:17;2.89;81.78
69731;SHT31;56996;48.138;11.538;2024-01-07T05:00:44;2.90;81.78
69731;SHT31;56996;48.138;11.538;2024-01-07T05:03:10;2.89;81.78
69731;SHT31;56996;48.138;11.538;2024-01-07T05:05:37;2.87;81.86
69731;SHT31;56996;48.138;11.538;2024-01-07T05:08:05;2.88;81.90
69731;SHT31;56996;48.138;11.538;2024-01-07T05:10:32;2.94;81.82
69731;SHT31;56996;48.138;11.538;2024-01-07T05:12:59;2.93;81.67
69731;SHT31;56996;48.138;11.538;2024-01-07T05:15:31;2.93;81.76
69731;SHT31;56996;48.138;11.538;2024-01-07T05:17:58;2.91;81.71
69731;SHT31;56996;48.138;11.538;2024-01-07T05:20:25;2.89;81.82
69731;SHT31;56996;48.138;11.538;2024-01-07T05:22:51;2.88;81.89
69731;SHT31;56996;48.138;11.538;2024-01-07T05:25:18;2.87;81.91
69731;SHT31;56996;48.138;11.538;2024-01-07T05:27:45;2.89;81.91
69731;SHT31;56996;48.138;11.538;2024-01-07T05:30:12;2.89;81.85
69731;SHT31;56996;48.138;11.538;2024-01-07T05:32:38;2.84;81.99
69731;SHT31;56996;48.138;11.538;2024-01-07T05:35:05;2.84;82.07
69731;SHT31;56996;48.138;11.538;2024-01-07T05:37:32;2.83;82.03
69731;SHT31;56996;48.138;11.538;2024-01-07T05:39:59;2.79;82.11
69731;SHT31;56996;48.138;11.538;2024-01-07T05:42:26;2.80;82.27
69731;SHT31;56996;48.138;11.538;2024-01-07T05:44:53;2.80;82.23
69731;SHT31;56996;48.138;11.538;2024-01-07T05:47:19;2.81;82.26
69731;SHT31;56996;48.138;11.538;2024-01-07T05:49:46;2.83;82.19
69731;SHT31;56996;48.138;11.538;2024-01-07T05:52:13;2.86;82.16
69731;SHT31;56996;48.138;11.538;2024-01-07T05:54:40;2.88;82.18
69731;SHT31;56996;48.138;11.538;2024-01-07T05:57:07;2.92;82.01
69731;SHT31;56996;48.138;11.538;2024-01-07T05:59:33;2.91;81.91
69731;SHT31;56996;48.138;11.538;2024-01-07T06:02:00;2.90;81.95
69731;SHT31;56996;48.138;11.538;2024-01-07T06:04:27;2.90;81.97
69731;SHT31;56996;48.138;11.538;2024-01-07T06:06:54;2.88;81.98
69731;SHT31;56996;48.138;11.538;2024-01-07T06:09:21;2.89;82.04
69731;SHT31;56996;48.138;11.538;2024-01-07T06:11:48;2.94;81.93
69731;SHT31;56996;48.138;11.538;2024-01-07T06:14:15;2.94;81.84
69731;SHT31;56996;48.138;11.538;2024-01-07T06:16:42;2.91;81.81
69731;SHT31;56996;48.138;11.538;2024-01-07T06:19:08;2.90;81.80
69731;SHT31;56996;48.138;11.538;2024-01-07T06:21:35;2.88;81.77
69731;SHT31;56996;48.138;11.538;2024-01-07T06:24:02;2.86;81.82
69731;SHT31;56996;48.138;11.538;2024-01-07T06:26:30;2.83;81.89
69731;SHT31;56996;48.138;11.538;2024-01-07T06:28:57;2.79;82.01
69731;SHT31;56996;48.138;11.538;2024-01-07T06:31:25;2.77;82.08
69731;SHT31;56996;48.138;11.538;2024-01-07T06:33:52;2.73;82.15
69731;SHT31;56996;48.138;11.538;2024-01-07T06:36:19;2.74;82.14
69731;SHT31;56996;48.138;11.538;2024-01-07T06:38:46;2.73;82.21
69731;SHT31;56996;48.138;11.538;2024-01-07T06:41:13;2.71;82.23
69731;SHT31;56996;48.138;11.538;2024-01-07T06:43:40;2.72;82.26
69731;SHT31;56996;48.138;11.538;2024-01-07T06:46:07;2.71;82.23
69731;SHT31;56996;48.138;11.538;2024-01-07T06:48:33;2.73;82.26
69731;SHT31;56996;48.138;11.538;2024-01-07T06:51:00;2.74;82.10
69731;SHT31;56996;48.138;11.538;2024-01-07T06:53:27;2.74;82.07
69731;SHT31;56996;48.138;11.538;2024-01-07T06:55:54;2.74;82.01
69731;SHT31;56996;48.138;11.538;2024-01-07T06:58:20;2.75;82.10
69731;SHT31;56996;48.138;11.538;2024-01-07T07:00:47;2.76;82.09
69731;SHT31;56996;48.138;11.538;2024-01-07T07:03:14;2.77;81.94
69731;SHT31;56996;48.138;11.538;2024-01-07T07:05:41;2.76;81.89
69731;SHT31;56996;48.138;11.538;2024-01-07T07:08:07;2.76;81.91
69731;SHT31;56996;48.138;11.538;2024-01-07T07:10:34;2.73;81.97
69731;SHT31;56996;48.138;11.538;2024-01-07T07:13:01;2.73;81.95
69731;SHT31;56996;48.138;11.538;2024-01-07T07:15:28;2.71;81.93
69731;SHT31;56996;48.138;11.538;2024-01-07T07:17:55;2.70;81.99
69731;SHT31;56996;48.138;11.538;2024-01-07T07:20:22;2.71;82.01
69731;SHT31;56996;48.138;11.538;2024-01-07T07:22:49;2.71;82.02
69731;SHT31;56996;48.138;11.538;2024-01-07T07:25:17;2.69;82.02
69731;SHT31;56996;48.138;11.538;2024-01-07T07:27:43;2.68;82.10
69731;SHT31;56996;48.138;11.538;2024-01-07T07:30:10;2.69;82.10
69731;SHT31;56996;48.138;11.538;2024-01-07T07:32:41;2.70;82.14
69731;SHT31;56996;48.138;11.538;2024-01-07T07:35:08;2.69;82.10
69731;SHT31;56996;48.138;11.538;2024-01-07T07:37:35;2.68;82.21
69731;SHT31;56996;48.138;11.538;2024-01-07T07:40:04;2.67;82.24
69731;SHT31;56996;48.138;11.538;2024-01-07T07:42:32;2.69;82.16
69731;SHT31;56996;48.138;11.538;2024-01-07T07:44:59;2.70;82.01
69731;SHT31;56996;48.138;11.538;2024-01-07T07:47:26;2.71;81.96
69731;SHT31;56996;48.138;11.538;2024-01-07T07:49:52;2.66;81.91
69731;SHT31;56996;48.138;11.538;2024-01-07T07:52:19;2.64;81.99
69731;SHT31;56996;48.138;11.538;2024-01-07T07:54:49;2.67;82.02
69731;SHT31;56996;48.138;11.538;2024-01-07T07:57:16;2.69;81.88
69731;SHT31;56996;48.138;11.538;2024-01-07T07:59:43;2.70;81.74
69731;SHT31;56996;48.138;11.538;2024-01-07T08:02:10;2.68;81.71
69731;SHT31;56996;48.138;11.538;2024-01-07T08:04:36;2.69;81.71
69731;SHT31;56996;48.138;11.538;2024-01-07T08:07:03;2.69;81.70
69731;SHT31;56996;48.138;11.538;2024-01-07T08:09:30;2.69;81.70
69731;SHT31;56996;48.138;11.538;2024-01-07T08:11:57;2.70;81.70
69731;SHT31;56996;48.138;11.538;2024-01-07T08:14:23;2.72;81.69
69731;SHT31;56996;48.138;11.538;2024-01-07T08:16:50;2.70;81.82
69731;SHT31;56996;48.138;11.538;2024-01-07T08:19:17;2.70;81.82
69731;SHT31;56996;48.138;11.538;2024-01-07T08:21:44;2.74;81.89
69731;SHT31;56996;48.138;11.538;2024-01-07T08:24:11;2.73;81.76
69731;SHT31;56996;48.138;11.538;2024-01-07T08:26:38;2.71;81.71
69731;SHT31;56996;48.138;11.538;2024-01-07T08:29:05;2.71;81.49
69731;SHT31;56996;48.138;11.538;2024-01-07T08:31:32;2.70;81.41
69731;SHT31;56996;48.138;11.538;2024-01-07T08:33:59;2.69;81.34
69731;SHT31;56996;48.138;11.538;2024-01-07T08:36:27;2.71;81.38
69731;SHT31;56996;48.138;11.538;2024-01-07T08:38:54;2.74;81.18
69731;SHT31;56996;48.138;11.538;2024-01-07T08:41:20;2.74;80.99
69731;SHT31;56996;48.138;11.538;2024-01-07T08:43:47;2.69;80.91
69731;SHT31;56996;48.138;11.538;2024-01-07T08:46:14;2.67;80.94
69731;SHT31;56996;48.138;11.538;2024-01-07T08:48:41;2.69;80.93
69731;SHT31;56996;48.138;11.538;2024-01-07T08:51:07;2.69;80.98
69731;SHT31;56996;48.138;11.538;2024-01-07T08:53:34;2.70;81.00
69731;SHT31;56996;48.138;11.538;2024-01-07T08:56:01;2.70;81.00
69731;SHT31;56996;48.138;11.538;2024-01-07T08:58:28;2.69;80.99
69731;SHT31;56996;48.138;11.538;2024-01-07T09:00:56;2.69;81.00
69731;SHT31;56996;48.138;11.538;2024-01-07T09:03:23;2.72;81.01
69731;SHT31;56996;48.138;11.538;2024-01-07T09:05:50;2.70;80.85
69731;SHT31;56996;48.138;11.538;2024-01-07T09:08:16;2.67;80.91
69731;SHT31;56996;48.138;11.538;2024-01-07T09:10:43;2.67;81.05
69731;SHT31;56996;48.138;11.538;2024-01-07T09:13:10;2.67;81.10
69731;SHT31;56996;48.138;11.538;2024-01-07T09:15:37;2.71;81.08
69731;SHT31;56996;48.138;11.538;2024-01-07T09:18:05;2.72;81.08
69731;SHT31;56996;48.138;11.538;2024-01-07T09:20:33;2.74;81.09
69731;SHT31;56996;48.138;11.538;2024-01-07T09:23:00;2.74;81.00
69731;SHT31;56996;48.138;11.538;2024-01-07T09:25:27;2.74;81.11
69731;SHT31;56996;48.138;11.538;2024-01-07T09:27:53;2.78;81.22
69731;SHT31;56996;48.138;11.538;2024-01-07T09:30:20;2.81;81.12
69731;SHT31;56996;48.138;11.538;2024-01-07T09:32:47;2.80;81.11
69731;SHT31;56996;48.138;11.538;2024-01-07T09:35:14;2.82;81.12
69731;SHT31;56996;48.138;11.538;2024-01-07T09:37:41;2.83;81.03
69731;SHT31;56996;48.138;11.538;2024-01-07T09:40:09;2.85;80.75
69731;SHT31;56996;48.138;11.538;2024-01-07T09:42:36;2.84;80.76
69731;SHT31;56996;48.138;11.538;2024-01-07T09:45:03;2.85;80.88
69731;SHT31;56996;48.138;11.538;2024-01-07T09:47:31;2.87;80.88
69731;SHT31;56996;48.138;11.538;2024-01-07T09:49:58;2.88;80.96
69731;SHT31;56996;48.138;11.538;2024-01-07T09:52:25;2.89;80.85
69731;SHT31;56996;48.138;11.538;2024-01-07T09:54:58;2.92;80.66
69731;SHT31;56996;48.138;11.538;2024-01-07T09:57:30;2.89;80.52
69731;SHT31;56996;48.138;11.538;2024-01-07T09:59:57;2.91;80.66
69731;SHT31;56996;48.138;11.538;2024-01-07T10:02:24;2.95;80.68
69731;SHT31;56996;48.138;11.538;2024-01-07T10:04:50;2.98;80.49
69731;SHT31;56996;48.138;11.538;2024-01-07T10:07:17;2.96;80.46
69731;SHT31;56996;48.138;11.538;2024-01-07T10:09:44;2.93;80.59
69731;SHT31;56996;48.138;11.538;2024-01-07T10:12:11;2.94;80.63
69731;SHT31;56996;48.138;11.538;2024-01-07T10:45:57;3.09;79.59
69731;SHT31;56996;48.138;11.538;2024-01-07T10:48:30;3.07;79.57
69731;SHT31;56996;48.138;11.538;2024-01-07T10:51:01;3.08;79.69
69731;SHT31;56996;48.138;11.538;2024-01-07T10:53:33;3.09;79.59
69731;SHT31;56996;48.138;11.538;2024-01-07T10:56:04;3.12;79.56
69731;SHT31;56996;48.138;11.538;2024-01-07T10:58:35;3.12;79.25
69731;SHT31;56996;48.138;11.538;2024-01-07T11:01:03;3.11;79.25
69731;SHT31;56996;48.138;11.538;2024-01-07T11:09:38;3.04;79.75
69731;SHT31;56996;48.138;11.538;2024-01-07T11:12:17;3.06;79.78
69731;SHT31;56996;48.138;11.538;2024-01-07T11:14:45;3.08;79.57
69731;SHT31;56996;48.138;11.538;2024-01-07T11:20:07;3.16;79.51
69731;SHT31;56996;48.138;11.538;2024-01-07T11:22:45;3.16;79.32
69731;SHT31;56996;48.138;11.538;2024-01-07T11:25:31;3.12;79.27
69731;SHT31;56996;48.138;11.538;2024-01-07T11:28:01;3.08;79.44
69731;SHT31;56996;48.138;11.538;2024-01-07T11:30:28;3.05;79.54
69731;SHT31;56996;48.138;11.538;2024-01-07T11:32:59;3.05;79.29
69731;SHT31;56996;48.138;11.538;2024-01-07T11:38:30;3.03;79.11
69731;SHT31;56996;48.138;11.538;2024-01-07T11:40:57;3.01;79.12
69731;SHT31;56996;48.138;11.538;2024-01-07T11:43:26;3.00;79.21
69731;SHT31;56996;48.138;11.538;2024-01-07T11:45:52;3.00;79.23
69731;SHT31;56996;48.138;11.538;2024-01-07T11:48:21;2.97;79.15
69731;SHT31;56996;48.138;11.538;2024-01-07T11:50:48;2.90;78.97
69731;SHT31;56996;48.138;11.538;2024-01-07T11:53:18;2.85;79.23
69731;SHT31;56996;48.138;11.538;2024-01-07T11:55:45;2.84;78.98
69731;SHT31;56996;48.138;11.538;2024-01-07T11:58:13;2.79;78.67
69731;SHT31;56996;48.138;11.538;2024-01-07T12:00:40;2.78;78.50
69731;SHT31;56996;48.138;11.538;2024-01-07T12:03:07;2.76;78.49
69731;SHT31;56996;48.138;11.538;2024-01-07T12:05:34;2.75;78.32
69731;SHT31;56996;48.138;11.538;2024-01-07T12:08:01;2.76;78.40
69731;SHT31;56996;48.138;11.538;2024-01-07T12:10:29;2.80;78.37
69731;SHT31;56996;48.138;11.538;2024-01-07T12:12:57;2.81;78.42
69731;SHT31;56996;48.138;11.538;2024-01-07T12:15:24;2.77;78.40
69731;SHT31;56996;48.138;11.538;2024-01-07T12:17:57;2.78;78.76
69731;SHT31;56996;48.138;11.538;2024-01-07T12:20:28;2.76;78.90
69731;SHT31;56996;48.138;11.538;2024-01-07T12:22:56;2.79;78.83
69731;SHT31;56996;48.138;11.538;2024-01-07T12:25:31;2.80;78.55
69731;SHT31;56996;48.138;11.538;2024-01-07T12:27:58;2.80;78.48
69731;SHT31;56996;48.138;11.538;2024-01-07T12:30:24;2.79;78.16
69731;SHT31;56996;48.138;11.538;2024-01-07T12:32:51;2.73;78.18
69731;SHT31;56996;48.138;11.538;2024-01-07T12:35:19;2.69;78.32
69731;SHT31;56996;48.138;11.538;2024-01-07T12:37:47;2.70;78.36
69731;SHT31;56996;48.138;11.538;2024-01-07T12:40:15;2.72;78.42
69731;SHT31;56996;48.138;11.538;2024-01-07T12:42:42;2.73;78.17
69731;SHT31;56996;48.138;11.538;2024-01-07T12:45:13;2.69;77.99
69731;SHT31;56996;48.138;11.538;2024-01-07T12:47:41;2.64;78.28
69731;SHT31;56996;48.138;11.538;2024-01-07T12:50:09;2.67;78.50
69731;SHT31;56996;48.138;11.538;2024-01-07T12:52:37;2.69;78.50
69731;SHT31;56996;48.138;11.538;2024-01-07T12:55:05;2.65;78.63
69731;SHT31;56996;48.138;11.538;2024-01-07T12:57:33;2.62;78.42
69731;SHT31;56996;48.138;11.538;2024-01-07T13:00:03;2.50;78.50
69731;SHT31;56996;48.138;11.538;2024-01-07T13:02:33;2.50;78.65
69731;SHT31;56996;48.138;11.538;2024-01-07T13:05:01;2.54;78.77
69731;SHT31;56996;48.138;11.538;2024-01-07T13:07:30;2.53;78.83
69731;SHT31;56996;48.138;11.538;2024-01-07T13:09:57;2.51;78.77
69731;SHT31;56996;48.138;11.538;2024-01-07T13:12:23;2.43;78.66
69731;SHT31;56996;48.138;11.538;2024-01-07T13:15:09;2.36;78.95
69731;SHT31;56996;48.138;11.538;2024-01-07T13:17:37;2.30;79.26
69731;SHT31;56996;48.138;11.538;2024-01-07T13:20:04;2.31;79.23
69731;SHT31;56996;48.138;11.538;2024-01-07T13:22:33;2.33;79.26
69731;SHT31;56996;48.138;11.538;2024-01-07T13:25:01;2.38;79.29
69731;SHT31;56996;48.138;11.538;2024-01-07T13:27:28;2.38;79.24
69731;SHT31;56996;48.138;11.538;2024-01-07T13:29:54;2.35;79.10
69731;SHT31;56996;48.138;11.538;2024-01-07T13:32:21;2.35;79.08
69731;SHT31;56996;48.138;11.538;2024-01-07T13:34:48;2.39;78.96
69731;SHT31;56996;48.138;11.538;2024-01-07T13:37:14;2.41;78.44
69731;SHT31;56996;48.138;11.538;2024-01-07T13:39:41;2.48;78.50
69731;SHT31;56996;48.138;11.538;2024-01-07T13:42:08;2.49;78.01
69731;SHT31;56996;48.138;11.538;2024-01-07T13:44:35;2.38;77.74
69731;SHT31;56996;48.138;11.538;2024-01-07T13:47:02;2.22;77.72
69731;SHT31;56996;48.138;11.538;2024-01-07T13:49:29;2.16;77.99
69731;SHT31;56996;48.138;11.538;2024-01-07T13:51:55;2.17;78.07
69731;SHT31;56996;48.138;11.538;2024-01-07T13:54:22;2.16;77.74
69731;SHT31;56996;48.138;11.538;2024-01-07T13:56:49;2.14;77.96
69731;SHT31;56996;48.138;11.538;2024-01-07T13:59:17;2.15;77.89
69731;SHT31;56996;48.138;11.538;2024-01-07T14:01:44;2.15;77.78
69731;SHT31;56996;48.138;11.538;2024-01-07T14:04:11;2.16;77.66
69731;SHT31;56996;48.138;11.538;2024-01-07T14:06:39;2.13;77.68
69731;SHT31;56996;48.138;11.538;2024-01-07T14:09:06;2.09;77.94
69731;SHT31;56996;48.138;11.538;2024-01-07T14:11:35;2.12;77.99
69731;SHT31;56996;48.138;11.538;2024-01-07T14:14:02;2.11;78.11
69731;SHT31;56996;48.138;11.538;2024-01-07T14:16:28;2.10;78.21
69731;SHT31;56996;48.138;11.538;2024-01-07T14:18:55;2.07;78.27
69731;SHT31;56996;48.138;11.538;2024-01-07T14:21:22;2.07;77.99
69731;SHT31;56996;48.138;11.538;2024-01-07T14:23:49;2.01;77.60
69731;SHT31;56996;48.138;11.538;2024-01-07T14:26:16;1.98;77.62
69731;SHT31;56996;48.138;11.538;2024-01-07T14:28:42;1.96;77.82
69731;SHT31;56996;48.138;11.538;2024-01-07T14:31:09;1.92;78.02
69731;SHT31;56996;48.138;11.538;2024-01-07T14:33:36;1.87;78.02
69731;SHT31;56996;48.138;11.538;2024-01-07T14:36:03;1.82;78.13
69731;SHT31;56996;48.138;11.538;2024-01-07T14:38:30;1.79;78.22
69731;SHT31;56996;48.138;11.538;2024-01-07T14:40:57;1.78;78.28
69731;SHT31;56996;48.138;11.538;2024-01-07T14:43:25;1.79;78.39
69731;SHT31;56996;48.138;11.538;2024-01-07T14:45:52;1.84;78.46
69731;SHT31;56996;48.138;11.538;2024-01-07T14:48:19;1.83;78.28
69731;SHT31;56996;48.138;11.538;2024-01-07T14:50:48;1.80;78.17
69731;SHT31;56996;48.138;11.538;2024-01-07T14:53:14;1.77;78.33
69731;SHT31;56996;48.138;11.538;2024-01-07T14:55:41;1.76;78.46
69731;SHT31;56996;48.138;11.538;2024-01-07T14:58:08;1.75;78.49
69731;SHT31;56996;48.138;11.538;2024-01-07T15:00:35;1.72;78.53
69731;SHT31;56996;48.138;11.538;2024-01-07T15:03:02;1.70;78.63
69731;SHT31;56996;48.138;11.538;2024-01-07T15:05:29;1.68;78.79
69731;SHT31;56996;48.138;11.538;2024-01-07T15:07:56;1.68;78.93
69731;SHT31;56996;48.138;11.538;2024-01-07T15:10:23;1.69;78.88
69731;SHT31;56996;48.138;11.538;2024-01-07T15:12:50;1.66;78.60
69731;SHT31;56996;48.138;11.538;2024-01-07T15:15:27;1.66;78.84
69731;SHT31;56996;48.138;11.538;2024-01-07T15:17:56;1.64;78.80
69731;SHT31;56996;48.138;11.538;2024-01-07T15:20:24;1.62;78.95
69731;SHT31;56996;48.138;11.538;2024-01-07T15:22:51;1.63;78.90
69731;SHT31;56996;48.138;11.538;2024-01-07T15:25:18;1.62;78.93
69731;SHT31;56996;48.138;11.538;2024-01-07T15:27:46;1.57;79.11
69731;SHT31;56996;48.138;11.538;2024-01-07T15:30:13;1.55;79.08
69731;SHT31;56996;48.138;11.538;2024-01-07T15:32:43;1.56;78.91
69731;SHT31;56996;48.138;11.538;2024-01-07T15:35:10;1.55;78.50
69731;SHT31;56996;48.138;11.538;2024-01-07T15:37:36;1.59;78.73
69731;SHT31;56996;48.138;11.538;2024-01-07T15:40:03;1.57;78.29
69731;SHT31;56996;48.138;11.538;2024-01-07T15:42:31;1.52;78.17
69731;SHT31;56996;48.138;11.538;2024-01-07T15:44:58;1.49;78.37
69731;SHT31;56996;48.138;11.538;2024-01-07T15:47:24;1.46;78.21
69731;SHT31;56996;48.138;11.538;2024-01-07T15:49:52;1.44;78.10
69731;SHT31;56996;48.138;11.538;2024-01-07T15:52:18;1.43;78.16
69731;SHT31;56996;48.138;11.538;2024-01-07T15:54:45;1.42;78.30
69731;SHT31;56996;48.138;11.538;2024-01-07T15:57:12;1.39;78.35
69731;SHT31;56996;48.138;11.538;2024-01-07T15:59:42;1.38;78.59
69731;SHT31;56996;48.138;11.538;2024-01-07T16:02:09;1.40;78.55
69731;SHT31;56996;48.138;11.538;2024-01-07T16:04:36;1.37;78.31
69731;SHT31;56996;48.138;11.538;2024-01-07T16:07:03;1.33;78.11
69731;SHT31;56996;48.138;11.538;2024-01-07T16:09:30;1.26;78.25
69731;SHT31;56996;48.138;11.538;2024-01-07T16:12:00;1.22;78.41
69731;SHT31;56996;48.138;11.538;2024-01-07T16:14:29;1.20;78.56